createdAt,value
2022-08-17T00:01:52.136Z,100269.84
2022-08-17T00:04:19.813Z,100272.72
2022-08-17T00:06:49.124Z,100270.25
2022-08-17T00:09:18.363Z,100275.63
2022-08-17T00:12:03.932Z,100278.25
2022-08-17T00:14:36.106Z,100278.03
2022-08-17T00:17:04.644Z,100283.44
2022-08-17T00:19:32.733Z,100286.75
2022-08-17T00:22:33.777Z,100282.75
2022-08-17T00:24:50.237Z,100277.13
2022-08-17T00:27:17.428Z,100275.00
2022-08-17T00:29:45.856Z,100267.13
2022-08-17T00:33:13.920Z,100272.38
2022-08-17T00:35:06.092Z,100264.63
2022-08-17T00:37:32.728Z,100264.84
2022-08-17T00:39:59.400Z,100263.81
2022-08-17T00:42:31.153Z,100264.94
2022-08-17T00:44:58.490Z,100258.22
2022-08-17T00:47:25.361Z,100253.16
2022-08-17T00:49:52.046Z,100259.88
2022-08-17T00:52:23.116Z,100258.16
2022-08-17T00:54:53.930Z,100260.06
2022-08-17T00:57:25.250Z,100266.16
2022-08-17T01:00:03.038Z,100261.50
2022-08-17T01:02:43.142Z,100256.25
2022-08-17T01:05:18.411Z,100256.44
2022-08-17T01:07:47.738Z,100254.91
2022-08-17T01:10:59.967Z,100247.00
2022-08-17T01:13:03.899Z,100251.22
2022-08-17T01:15:31.850Z,100254.09
2022-08-17T01:17:58.403Z,100258.91
2022-08-17T01:20:25.134Z,100254.69
2022-08-17T01:22:52.409Z,100257.19
2022-08-17T01:25:21.264Z,100263.56
2022-08-17T01:27:49.244Z,100268.28
2022-08-17T01:30:58.955Z,100261.47
2022-08-17T01:33:04.326Z,100258.03
2022-08-17T01:35:30.932Z,100258.59
2022-08-17T01:37:57.461Z,100258.97
2022-08-17T01:40:39.025Z,100267.50
2022-08-17T01:43:21.606Z,100262.69
2022-08-17T01:46:02.711Z,100257.91
2022-08-17T01:48:33.084Z,100262.00
2022-08-17T01:50:59.899Z,100261.91
2022-08-17T01:53:34.880Z,100266.13
2022-08-17T01:56:07.874Z,100262.38
2022-08-17T01:58:36.162Z,100267.78
2022-08-17T02:01:04.024Z,100270.22
2022-08-17T02:03:31.915Z,100272.59
2022-08-17T02:05:58.943Z,100277.63
2022-08-17T02:08:39.180Z,100279.97
2022-08-17T02:11:16.687Z,100280.44
2022-08-17T02:13:45.213Z,100270.75
2022-08-17T02:16:13.005Z,100271.34
2022-08-17T02:18:40.012Z,100268.78
2022-08-17T02:21:07.188Z,100267.75
2022-08-17T02:23:38.586Z,100258.28
2022-08-17T02:26:05.443Z,100262.38
2022-08-17T02:28:32.071Z,100267.88
2022-08-17T02:31:04.961Z,100263.06
2022-08-17T02:34:09.527Z,100260.00
2022-08-17T02:36:36.397Z,100263.88
2022-08-17T02:39:06.684Z,100265.03
2022-08-17T02:41:33.698Z,100263.63
2022-08-17T02:44:01.257Z,100262.56
2022-08-17T02:46:28.364Z,100258.03
2022-08-17T02:48:55.008Z,100270.31
2022-08-17T02:51:21.864Z,100254.75
2022-08-17T02:53:48.450Z,100255.91
2022-08-17T02:56:15.015Z,100256.00
2022-08-17T02:58:41.539Z,100255.91
2022-08-17T03:01:10.104Z,100257.78
2022-08-17T03:03:38.358Z,100256.25
2022-08-17T03:06:06.115Z,100254.63
2022-08-17T03:08:32.640Z,100253.34
2022-08-17T03:10:59.582Z,100253.66
2022-08-17T03:13:27.495Z,100250.28
2022-08-17T03:15:54.071Z,100253.91
2022-08-17T03:18:25.671Z,100252.72
2022-08-17T03:20:59.547Z,100252.81
2022-08-17T03:23:27.527Z,100254.69
2022-08-17T03:25:56.436Z,100251.41
2022-08-17T03:28:24.459Z,100250.84
2022-08-17T03:30:51.669Z,100252.94
2022-08-17T03:33:19.457Z,100252.28
2022-08-17T03:35:46.035Z,100257.28
2022-08-17T03:38:15.145Z,100255.75
2022-08-17T03:40:56.753Z,100252.38
2022-08-17T03:43:30.074Z,100253.06
2022-08-17T03:46:28.202Z,100256.94
2022-08-17T03:49:23.901Z,100257.66
2022-08-17T03:52:09.333Z,100255.75
2022-08-17T03:54:54.124Z,100256.34
2022-08-17T03:57:20.688Z,100263.84
2022-08-17T03:59:47.686Z,100266.53
2022-08-17T04:02:21.652Z,100272.16
2022-08-17T04:04:50.884Z,100271.56
2022-08-17T04:07:19.359Z,100268.28
2022-08-17T04:09:45.905Z,100266.53
2022-08-17T04:12:16.152Z,100268.75
2022-08-17T04:14:53.540Z,100257.44
2022-08-17T04:17:27.125Z,100259.41
2022-08-17T04:19:55.447Z,100263.16
2022-08-17T04:22:33.005Z,100273.09
2022-08-17T04:25:32.218Z,100274.63
2022-08-17T04:28:00.464Z,100270.53
2022-08-17T04:30:29.896Z,100277.34
2022-08-17T04:33:05.011Z,100279.31
2022-08-17T04:35:36.928Z,100282.56
2022-08-17T04:38:04.151Z,100283.41
2022-08-17T04:40:49.311Z,100277.44
2022-08-17T04:43:18.702Z,100275.09
2022-08-17T04:45:54.984Z,100276.03
2022-08-17T04:48:23.624Z,100277.66
2022-08-17T04:51:03.664Z,100269.47
2022-08-17T04:53:30.178Z,100272.75
2022-08-17T04:55:58.968Z,100275.22
2022-08-17T04:58:25.491Z,100270.06
2022-08-17T05:00:52.083Z,100281.66
2022-08-17T05:03:18.951Z,100275.22
2022-08-17T05:05:49.715Z,100269.59
2022-08-17T05:08:18.983Z,100269.50
2022-08-17T05:10:46.876Z,100276.41
2022-08-17T05:13:18.341Z,100287.28
2022-08-17T05:15:47.768Z,100279.00
2022-08-17T05:18:14.985Z,100282.25
2022-08-17T05:20:41.769Z,100273.47
2022-08-17T05:23:12.807Z,100266.94
2022-08-17T05:25:42.085Z,100268.69
2022-08-17T05:28:14.933Z,100276.97
2022-08-17T05:30:43.968Z,100278.16
2022-08-17T05:33:19.970Z,100276.03
2022-08-17T05:35:48.709Z,100278.28
2022-08-17T05:38:17.109Z,100272.41
2022-08-17T05:40:44.179Z,100269.72
2022-08-17T05:43:17.994Z,100277.75
2022-08-17T05:46:22.009Z,100279.66
2022-08-17T05:48:51.622Z,100283.97
2022-08-17T05:51:55.877Z,100284.91
2022-08-17T05:54:47.125Z,100293.19
2022-08-17T05:57:53.404Z,100325.41
2022-08-17T06:00:26.248Z,100319.69
2022-08-17T06:03:21.830Z,100329.03
2022-08-17T06:06:10.231Z,100354.09
2022-08-17T06:08:55.040Z,100336.16
2022-08-17T06:11:39.197Z,100321.03
2022-08-17T06:14:38.477Z,100331.22
2022-08-17T06:17:15.544Z,100317.97
2022-08-17T06:20:15.682Z,100323.13
2022-08-17T06:22:56.563Z,100326.19
2022-08-17T06:25:32.329Z,100324.78
2022-08-17T06:28:05.830Z,100325.69
2022-08-17T06:30:58.438Z,100330.50
2022-08-17T06:33:32.725Z,100319.63
2022-08-17T06:36:10.706Z,100317.16
2022-08-17T06:38:55.653Z,100324.56
2022-08-17T06:41:38.130Z,100309.25
2022-08-17T06:44:43.551Z,100311.69
2022-08-17T06:47:27.958Z,100302.25
2022-08-17T06:50:14.552Z,100308.56
2022-08-17T06:52:57.093Z,100312.63
2022-08-17T06:55:37.867Z,100319.75
2022-08-17T06:58:15.916Z,100317.88
2022-08-17T07:00:47.262Z,100325.56
2022-08-17T07:03:29.365Z,100333.56
2022-08-17T07:06:08.691Z,100343.88
2022-08-17T07:08:55.841Z,100342.31
2022-08-17T07:11:45.268Z,100346.38
2022-08-17T07:14:36.557Z,100346.91
2022-08-17T07:17:46.636Z,100354.94
2022-08-17T07:20:15.160Z,100353.78
2022-08-17T07:22:59.338Z,100361.41
2022-08-17T07:25:28.569Z,100366.19
2022-08-17T07:27:59.820Z,100370.84
2022-08-17T07:30:44.591Z,100369.78
2022-08-17T07:33:20.351Z,100367.38
2022-08-17T07:35:48.459Z,100372.69
2022-08-17T07:38:25.941Z,100367.44
2022-08-17T07:40:57.679Z,100374.19
2022-08-17T07:43:39.502Z,100367.88
2022-08-17T07:46:43.205Z,100371.59
2022-08-17T07:49:09.810Z,100371.91
2022-08-17T07:51:42.508Z,100382.22
2022-08-17T07:54:15.153Z,100386.69
2022-08-17T07:57:29.498Z,100388.78
2022-08-17T08:00:03.044Z,100390.03
2022-08-17T08:02:40.237Z,100403.47
2022-08-17T08:05:49.268Z,100404.66
2022-08-17T08:08:22.486Z,100400.44
2022-08-17T08:11:03.095Z,100398.88
2022-08-17T08:13:30.837Z,100394.06
2022-08-17T08:16:12.806Z,100386.03
2022-08-17T08:18:54.109Z,100385.63
2022-08-17T08:22:02.938Z,100388.31
2022-08-17T08:25:12.788Z,100399.69
2022-08-17T08:28:05.636Z,100404.13
2022-08-17T08:30:40.702Z,100414.09
2022-08-17T08:33:21.441Z,100419.28
2022-08-17T08:38:48.374Z,100425.16
2022-08-17T08:41:45.809Z,100422.88
2022-08-17T08:44:58.974Z,100428.28
2022-08-17T08:47:10.998Z,100438.00
2022-08-17T08:50:03.538Z,100437.19
2022-08-17T08:53:00.321Z,100449.66
2022-08-17T08:55:49.136Z,100446.75
2022-08-17T08:58:42.337Z,100438.69
2022-08-17T09:01:21.183Z,100444.59
2022-08-17T09:04:20.031Z,100451.94
2022-08-17T09:06:56.530Z,100453.00
2022-08-17T09:09:35.735Z,100460.50
2022-08-17T09:12:33.941Z,100459.59
2022-08-17T09:15:13.821Z,100465.34
2022-08-17T09:19:02.575Z,100466.41
2022-08-17T09:21:10.197Z,100458.63
2022-08-17T09:23:49.449Z,100456.91
2022-08-17T09:26:30.442Z,100461.81
2022-08-17T09:29:02.218Z,100458.00
2022-08-17T09:31:35.582Z,100448.97
2022-08-17T09:34:19.177Z,100439.78
2022-08-17T09:37:26.419Z,100445.69
2022-08-17T09:40:15.810Z,100462.69
2022-08-17T09:42:52.455Z,100456.16
2022-08-17T09:45:24.812Z,100448.94
2022-08-17T09:48:02.077Z,100433.66
2022-08-17T09:51:03.984Z,100422.84
2022-08-17T09:53:25.607Z,100427.88
2022-08-17T09:56:14.311Z,100431.19
2022-08-17T09:59:17.221Z,100423.00
2022-08-17T10:01:51.618Z,100421.88
2022-08-17T10:04:53.704Z,100427.88
2022-08-17T10:08:09.292Z,100432.13
2022-08-17T10:10:56.307Z,100433.03
2022-08-17T10:13:32.962Z,100432.91
2022-08-17T10:16:09.784Z,100437.75
2022-08-17T10:18:54.931Z,100429.78
2022-08-17T10:21:42.004Z,100426.53
2022-08-17T10:25:20.879Z,100432.31
2022-08-17T10:27:54.471Z,100430.38
2022-08-17T10:30:25.877Z,100440.84
2022-08-17T10:33:14.522Z,100449.41
2022-08-17T10:36:10.598Z,100457.75
2022-08-17T10:38:45.971Z,100463.16
2022-08-17T10:41:38.222Z,100460.66
2022-08-17T10:44:37.031Z,100458.34
2022-08-17T10:47:11.802Z,100468.00
2022-08-17T10:49:47.554Z,100479.16
2022-08-17T10:52:20.258Z,100473.72
2022-08-17T10:54:58.212Z,100458.94
2022-08-17T10:57:34.111Z,100469.34
2022-08-17T11:00:05.129Z,100463.88
2022-08-17T11:02:53.266Z,100459.84
2022-08-17T11:05:30.234Z,100469.00
2022-08-17T11:08:08.019Z,100474.50
2022-08-17T11:10:34.587Z,100472.28
2022-08-17T11:13:31.311Z,100476.97
2022-08-17T11:16:16.522Z,100478.09
2022-08-17T11:19:10.982Z,100482.16
2022-08-17T11:21:55.465Z,100480.03
2022-08-17T11:24:30.601Z,100470.72
2022-08-17T11:27:12.447Z,100473.63
2022-08-17T11:30:03.534Z,100461.59
2022-08-17T11:32:33.167Z,100467.94
2022-08-17T11:35:21.475Z,100466.97
2022-08-17T11:38:31.568Z,100473.47
2022-08-17T11:41:27.431Z,100462.81
2022-08-17T11:44:28.132Z,100461.13
2022-08-17T11:47:32.153Z,100459.44
2022-08-17T11:50:17.328Z,100466.66
2022-08-17T11:52:49.719Z,100459.59
2022-08-17T11:55:38.473Z,100458.41
2022-08-17T11:58:29.479Z,100454.72
2022-08-17T12:00:59.602Z,100445.13
2022-08-17T12:03:32.225Z,100450.81
2022-08-17T12:06:24.910Z,100457.94
2022-08-17T12:09:06.852Z,100460.38
2022-08-17T12:12:10.987Z,100460.53
2022-08-17T12:15:05.787Z,100464.81
2022-08-17T12:17:40.658Z,100453.75
2022-08-17T12:20:19.003Z,100459.06
2022-08-17T12:23:07.418Z,100462.84
2022-08-17T12:25:43.201Z,100470.22
2022-08-17T12:28:29.940Z,100463.53
2022-08-17T12:31:01.796Z,100479.09
2022-08-17T12:33:29.080Z,100479.84
2022-08-17T12:36:05.555Z,100479.34
2022-08-17T12:38:36.919Z,100469.41
2022-08-17T12:41:24.821Z,100463.97
2022-08-17T12:44:02.305Z,100455.94
2022-08-17T12:46:44.752Z,100464.88
2022-08-17T12:49:26.515Z,100461.31
2022-08-17T12:52:12.522Z,100464.28
2022-08-17T12:54:56.822Z,100458.72
2022-08-17T12:57:27.406Z,100458.06
2022-08-17T13:00:02.903Z,100455.69
2022-08-17T13:02:41.374Z,100443.97
2022-08-17T13:05:17.859Z,100444.25
2022-08-17T13:07:46.621Z,100452.47
2022-08-17T13:10:18.392Z,100454.34
2022-08-17T13:12:45.175Z,100453.28
2022-08-17T13:15:38.147Z,100451.03
2022-08-17T13:18:45.623Z,100454.06
2022-08-17T13:21:23.901Z,100449.66
2022-08-17T13:24:12.008Z,100448.84
2022-08-17T13:26:42.015Z,100457.59
2022-08-17T13:29:16.669Z,100456.75
2022-08-17T13:31:52.880Z,100459.50
2022-08-17T13:34:26.885Z,100457.16
2022-08-17T13:37:35.078Z,100452.00
2022-08-17T13:40:10.788Z,100461.31
2022-08-17T13:42:52.236Z,100450.97
2022-08-17T13:45:36.203Z,100456.13
2022-08-17T13:48:29.043Z,100463.75
2022-08-17T13:50:55.641Z,100448.16
2022-08-17T13:53:24.896Z,100455.53
2022-08-17T13:56:33.430Z,100458.34
2022-08-17T13:59:04.995Z,100450.78
2022-08-17T14:01:36.498Z,100465.38
2022-08-17T14:04:09.951Z,100462.94
2022-08-17T14:06:53.013Z,100453.00
2022-08-17T14:09:26.445Z,100455.09
2022-08-17T14:11:54.885Z,100451.91
2022-08-17T14:14:23.260Z,100441.53
2022-08-17T14:16:53.505Z,100442.69
2022-08-17T14:19:21.892Z,100438.09
2022-08-17T14:21:49.125Z,100442.66
2022-08-17T14:24:31.629Z,100440.53
2022-08-17T14:27:00.441Z,100431.50
2022-08-17T14:29:28.698Z,100433.53
2022-08-17T14:31:56.595Z,100429.44
2022-08-17T14:34:25.015Z,100424.38
2022-08-17T14:36:52.446Z,100426.19
2022-08-17T14:39:19.705Z,100409.75
2022-08-17T14:41:46.687Z,100421.22
2022-08-17T14:44:13.422Z,100417.09
2022-08-17T14:46:41.765Z,100417.94
2022-08-17T14:49:11.675Z,100418.06
2022-08-17T14:51:44.042Z,100416.06
2022-08-17T14:54:32.661Z,100410.09
2022-08-17T14:57:24.785Z,100411.44
2022-08-17T14:59:46.974Z,100415.50
2022-08-17T15:02:13.541Z,100415.69
2022-08-17T15:04:45.386Z,100417.84
2022-08-17T15:07:12.409Z,100412.69
2022-08-17T15:09:39.118Z,100408.38
2022-08-17T15:12:06.847Z,100410.34
2022-08-17T15:14:35.370Z,100408.63
2022-08-17T15:17:03.710Z,100402.91
2022-08-17T15:19:30.571Z,100402.66
2022-08-17T15:21:57.290Z,100414.47
2022-08-17T15:24:23.840Z,100413.47
2022-08-17T15:26:51.445Z,100407.66
2022-08-17T15:29:18.018Z,100400.41
2022-08-17T15:31:44.667Z,100388.47
2022-08-17T15:34:11.288Z,100385.03
2022-08-17T15:36:37.944Z,100389.09
2022-08-17T15:39:07.924Z,100390.09
2022-08-17T15:41:34.770Z,100389.78
2022-08-17T15:44:01.322Z,100387.31
2022-08-17T15:46:28.347Z,100389.28
2022-08-17T15:48:59.855Z,100406.69
2022-08-17T15:51:31.536Z,100407.22
2022-08-17T15:54:04.540Z,100403.13
2022-08-17T15:56:46.230Z,100404.84
2022-08-17T15:59:13.056Z,100403.53
2022-08-17T16:03:04.677Z,100404.16
2022-08-17T16:04:30.875Z,100415.41
2022-08-17T16:06:58.728Z,100418.66
2022-08-17T16:09:25.457Z,100413.25
2022-08-17T16:11:55.511Z,100404.31
2022-08-17T16:14:22.644Z,100407.22
2022-08-17T16:16:51.814Z,100412.09
2022-08-17T16:19:18.600Z,100412.41
2022-08-17T16:21:45.148Z,100416.56
2022-08-17T16:24:13.430Z,100412.03
2022-08-17T16:26:40.493Z,100407.41
2022-08-17T16:29:07.471Z,100399.00
2022-08-17T16:31:34.173Z,100396.25
2022-08-17T16:34:17.069Z,100399.50
2022-08-17T16:36:53.685Z,100404.34
2022-08-17T16:39:25.468Z,100392.13
2022-08-17T16:41:52.052Z,100388.88
2022-08-17T16:44:20.574Z,100399.19
2022-08-17T16:46:48.339Z,100399.72
2022-08-17T16:49:36.119Z,100396.19
2022-08-17T16:52:05.396Z,100395.03
2022-08-17T16:54:32.660Z,100395.53
2022-08-17T16:56:59.374Z,100405.25
2022-08-17T16:59:30.047Z,100407.13
2022-08-17T17:02:04.865Z,100407.41
2022-08-17T17:04:35.009Z,100403.81
2022-08-17T17:07:43.187Z,100400.78
2022-08-17T17:10:16.009Z,100398.31
2022-08-17T17:13:02.408Z,100401.81
2022-08-17T17:15:52.458Z,100396.91
2022-08-17T17:18:23.025Z,100397.13
2022-08-17T17:20:56.045Z,100397.66
2022-08-17T17:23:47.117Z,100400.84
2022-08-17T17:26:48.428Z,100418.50
2022-08-17T17:29:46.520Z,100423.31
2022-08-17T17:32:21.546Z,100423.78
2022-08-17T17:34:54.006Z,100424.91
2022-08-17T17:37:27.273Z,100431.03
2022-08-17T17:39:57.815Z,100442.38
2022-08-17T17:42:31.278Z,100448.59
2022-08-17T17:44:57.915Z,100447.97
2022-08-17T17:47:24.888Z,100445.22
2022-08-17T17:49:51.691Z,100434.91
2022-08-17T17:52:37.805Z,100434.31
2022-08-17T17:55:07.278Z,100438.91
2022-08-17T17:57:56.329Z,100439.69
2022-08-17T18:00:30.374Z,100446.34
2022-08-17T18:03:27.132Z,100437.88
2022-08-17T18:06:31.142Z,100442.13
2022-08-17T18:09:03.747Z,100435.34
2022-08-17T18:11:41.789Z,100443.09
2022-08-17T18:14:30.792Z,100439.47
2022-08-17T18:16:59.686Z,100432.69
2022-08-17T18:19:28.595Z,100436.66
2022-08-17T18:22:14.133Z,100435.28
2022-08-17T18:24:57.921Z,100432.53
2022-08-17T18:27:24.596Z,100443.56
2022-08-17T18:29:54.960Z,100445.16
2022-08-17T18:32:23.537Z,100437.56
2022-08-17T18:35:01.410Z,100451.59
2022-08-17T18:37:49.937Z,100457.13
2022-08-17T18:40:16.823Z,100462.69
2022-08-17T18:42:58.324Z,100470.97
2022-08-17T18:45:30.837Z,100475.25
2022-08-17T18:47:57.417Z,100483.53
2022-08-17T18:50:33.996Z,100487.78
2022-08-17T18:53:26.694Z,100500.44
2022-08-17T18:56:26.994Z,100494.34
2022-08-17T18:58:57.648Z,100499.75
2022-08-17T19:01:41.757Z,100502.72
2022-08-17T19:04:34.094Z,100506.16
2022-08-17T19:07:24.501Z,100509.59
2022-08-17T19:10:17.324Z,100514.66
2022-08-17T19:12:51.740Z,100517.56
2022-08-17T19:15:24.830Z,100509.47
2022-08-17T19:18:00.705Z,100515.53
2022-08-17T19:20:50.246Z,100518.56
2022-08-17T19:23:53.822Z,100513.31
2022-08-17T19:26:53.662Z,100513.56
2022-08-17T19:29:46.685Z,100518.59
2022-08-17T19:32:16.827Z,100512.91
2022-08-17T19:34:44.489Z,100520.44
2022-08-17T19:37:16.780Z,100520.78
2022-08-17T19:39:55.580Z,100523.50
2022-08-17T19:42:42.479Z,100520.88
2022-08-17T19:46:01.419Z,100521.56
2022-08-17T19:48:48.323Z,100514.56
2022-08-17T19:51:24.505Z,100529.34
2022-08-17T19:54:10.494Z,100526.88
2022-08-17T19:56:50.539Z,100529.84
2022-08-17T19:59:26.099Z,100525.47
2022-08-17T20:02:01.279Z,100520.94
2022-08-17T20:04:32.270Z,100526.13
2022-08-17T20:07:26.180Z,100530.22
2022-08-17T20:10:06.947Z,100530.47
2022-08-17T20:12:36.250Z,100527.41
2022-08-17T20:15:10.291Z,100532.34
2022-08-17T20:17:42.568Z,100536.81
2022-08-17T20:20:20.263Z,100547.50
2022-08-17T20:23:17.798Z,100542.78
2022-08-17T20:25:53.526Z,100552.53
2022-08-17T20:28:35.030Z,100549.03
2022-08-17T20:31:02.722Z,100561.22
2022-08-17T20:33:37.978Z,100563.22
2022-08-17T20:36:22.745Z,100557.59
2022-08-17T20:38:55.890Z,100564.53
2022-08-17T20:41:27.902Z,100563.34
2022-08-17T20:43:57.208Z,100559.59
2022-08-17T20:46:28.729Z,100559.50
2022-08-17T20:49:14.010Z,100559.38
2022-08-17T20:52:07.847Z,100571.94
2022-08-17T20:54:52.813Z,100561.13
2022-08-17T20:57:34.402Z,100555.97
2022-08-17T21:00:17.601Z,100560.56
2022-08-17T21:02:46.694Z,100558.34
2022-08-17T21:05:32.481Z,100565.59
2022-08-17T21:08:16.203Z,100571.44
2022-08-17T21:10:45.508Z,100561.97
2022-08-17T21:13:13.866Z,100562.44
2022-08-17T21:15:41.910Z,100565.69
2022-08-17T21:18:38.611Z,100567.13
2022-08-17T21:21:48.456Z,100573.88
2022-08-17T21:24:39.276Z,100573.75
2022-08-17T21:27:21.021Z,100579.59
2022-08-17T21:30:13.174Z,100582.75
2022-08-17T21:32:42.013Z,100580.50
2022-08-17T21:35:17.599Z,100582.25
2022-08-17T21:37:46.196Z,100579.22
2022-08-17T21:40:12.836Z,100582.84
2022-08-17T21:42:53.850Z,100575.47
2022-08-17T21:45:36.843Z,100580.09
2022-08-17T21:48:20.572Z,100583.84
2022-08-17T21:50:59.364Z,100591.00
2022-08-17T21:53:38.105Z,100583.69
2022-08-17T21:56:06.390Z,100589.53
2022-08-17T21:58:40.339Z,100586.50
2022-08-17T22:01:13.030Z,100580.16
2022-08-17T22:03:47.598Z,100581.56
2022-08-17T22:06:54.225Z,100591.53
2022-08-17T22:09:44.919Z,100572.63
2022-08-17T22:12:22.734Z,100583.91
2022-08-17T22:15:07.472Z,100580.63
2022-08-17T22:17:38.733Z,100593.94
2022-08-17T22:20:12.066Z,100603.44
2022-08-17T22:23:19.600Z,100605.53
2022-08-17T22:26:09.578Z,100609.28
2022-08-17T22:28:49.282Z,100603.75
2022-08-17T22:31:28.466Z,100615.63
2022-08-17T22:33:59.747Z,100614.41
2022-08-17T22:36:37.191Z,100618.63
2022-08-17T22:39:09.685Z,100614.34
2022-08-17T22:41:59.002Z,100613.53
2022-08-17T22:44:36.516Z,100624.28
2022-08-17T22:47:11.479Z,100613.75
2022-08-17T22:49:57.944Z,100628.88
2022-08-17T22:52:34.406Z,100629.97
2022-08-17T22:55:37.641Z,100629.03
2022-08-17T22:58:30.627Z,100629.84
2022-08-17T23:01:17.109Z,100627.00
2022-08-17T23:03:57.506Z,100627.59
2022-08-17T23:06:24.483Z,100630.69
2022-08-17T23:08:56.318Z,100629.19
2022-08-17T23:11:36.698Z,100631.06
2022-08-17T23:14:18.364Z,100626.88
2022-08-17T23:16:45.392Z,100634.41
2022-08-17T23:19:15.369Z,100629.50
2022-08-17T23:21:44.859Z,100630.78
2022-08-17T23:24:17.045Z,100625.88
2022-08-17T23:26:43.568Z,100629.13
2022-08-17T23:29:10.150Z,100634.47
2022-08-17T23:31:38.590Z,100631.72
2022-08-17T23:34:09.349Z,100626.97
2022-08-17T23:36:36.202Z,100631.50
2022-08-17T23:39:03.250Z,100635.38
2022-08-17T23:41:33.642Z,100632.03
2022-08-17T23:44:01.153Z,100640.75
2022-08-17T23:46:27.689Z,100647.44
2022-08-17T23:48:54.299Z,100652.31
2022-08-17T23:51:27.340Z,100648.63
2022-08-17T23:53:58.184Z,100649.06
2022-08-17T23:56:25.742Z,100651.81
2022-08-17T23:58:54.833Z,100649.41
